Time;durP1;ratioP1;P1;durP2;ratioP2;P2;SDS_P1;SDS_P2;PMS_P1;PMS_P2;Temp;Humidity;BMP_temperature;BMP_pressure;BME280_temperature;BME280_humidity;BME280_pressure;Samples;Min_cycle;Max_cycle;Signal;HPM_P1;HPM_P2
2023/05/09 00:00:43;;;;;;;26.88;20.85;;;;;;;15.90;83.83;101549.03;3619100;39;20099;-67
2023/05/09 00:03:11;;;;;;;26.13;20.80;;;;;;;15.88;83.13;101537.41;3616382;39;20378;-67
2023/05/09 00:05:37;;;;;;;27.52;21.48;;;;;;;15.90;84.01;101531.88;3616922;39;20256;-67
2023/05/09 00:08:03;;;;;;;26.90;21.05;;;;;;;15.53;82.86;101477.59;3613745;39;20046;-67
2023/05/09 00:10:29;;;;;;;28.02;19.50;;;;;;;15.86;82.75;101533.97;3618194;39;20051;-68
2023/05/09 00:12:56;;;;;;;26.58;20.38;;;;;;;15.90;82.90;101529.19;3616669;39;20266;-68
2023/05/09 00:15:22;;;;;;;26.85;20.27;;;;;;;15.85;83.94;101523.22;3616913;39;20127;-68
2023/05/09 00:17:49;;;;;;;26.05;20.60;;;;;;;15.87;83.59;101524.84;3617484;39;20046;-68
2023/05/09 00:20:15;;;;;;;25.98;19.88;;;;;;;15.86;82.91;101525.84;3616644;39;20066;-68
2023/05/09 00:22:41;;;;;;;26.85;19.73;;;;;;;15.85;83.23;101524.06;3616892;39;20090;-67
2023/05/09 00:25:09;;;;;;;24.40;19.02;;;;;;;15.82;83.28;101518.00;3617455;39;20491;-67
2023/05/09 00:27:35;;;;;;;25.38;20.08;;;;;;;15.81;83.13;101519.88;3617951;39;20090;-67
2023/05/09 00:30:00;;;;;;;24.17;19.00;;;;;;;15.80;83.19;101518.13;3616788;39;20102;-68
2023/05/09 00:32:27;;;;;;;26.67;19.10;;;;;;;15.78;82.54;101503.81;3616821;39;20385;-67
2023/05/09 00:34:53;;;;;;;22.38;18.30;;;;;;;15.80;82.99;101512.72;3615382;39;20058;-67
2023/05/09 00:37:20;;;;;;;24.17;18.75;;;;;;;15.60;82.79;101472.59;3618268;39;20457;-67
2023/05/09 00:39:47;;;;;;;23.27;18.95;;;;;;;15.70;83.49;101476.44;3614441;39;20424;-67
2023/05/09 00:42:13;;;;;;;22.17;17.45;;;;;;;15.81;83.53;101506.31;3620276;39;20046;-68
2023/05/09 00:44:39;;;;;;;24.85;18.70;;;;;;;15.81;83.58;101511.72;3614157;39;20059;-68
2023/05/09 00:47:06;;;;;;;23.48;18.83;;;;;;;15.81;83.31;101502.72;3616547;39;20082;-68
2023/05/09 00:49:32;;;;;;;23.52;17.48;;;;;;;15.77;83.07;101491.25;3613687;39;20058;-67
2023/05/09 00:51:58;;;;;;;23.95;17.33;;;;;;;15.81;83.62;101492.75;3610279;39;20069;-67
2023/05/09 00:54:25;;;;;;;24.80;16.88;;;;;;;15.80;82.73;101495.59;3616611;39;20050;-67
2023/05/09 00:56:50;;;;;;;24.05;17.13;;;;;;;15.73;83.37;101477.06;3615233;39;20046;-67
2023/05/09 00:59:17;;;;;;;21.23;16.00;;;;;;;15.49;83.13;101439.03;3618828;39;20177;-67
2023/05/09 01:01:44;;;;;;;20.35;16.42;;;;;;;15.52;82.78;101440.66;3616269;39;20050;-67
2023/05/09 01:04:12;;;;;;;19.15;15.57;;;;;;;15.79;82.97;101475.72;3602994;39;20043;-67
2023/05/09 01:07:49;;;;;;;19.95;15.07;;;;;;;15.77;82.61;101475.00;3609686;39;20046;-67
2023/05/09 01:10:42;;;;;;;20.80;14.75;;;;;;;15.77;82.49;101470.44;3585157;39;20047;-67
2023/05/09 01:13:22;;;;;;;19.40;14.88;;;;;;;15.76;82.13;101462.38;3616835;39;20084;-67
2023/05/09 01:16:07;;;;;;;17.02;14.45;;;;;;;15.78;82.40;101463.16;3614311;39;20085;-67
2023/05/09 01:18:59;;;;;;;20.23;15.13;;;;;;;15.79;82.28;101464.88;3617541;39;20682;-67
2023/05/09 01:21:29;;;;;;;18.85;14.05;;;;;;;15.81;82.48;101457.50;3616337;39;20043;-67
2023/05/09 01:24:23;;;;;;;17.42;13.77;;;;;;;15.78;82.09;101450.47;3606746;39;20336;-68
2023/05/09 01:27:31;;;;;;;20.15;14.52;;;;;;;15.79;82.21;101435.06;3613690;39;20061;-67
2023/05/09 01:30:03;;;;;;;16.38;13.40;;;;;;;15.78;82.40;101425.22;3615903;39;20073;-67
2023/05/09 01:32:37;;;;;;;19.80;14.55;;;;;;;15.71;82.16;101415.81;3611037;39;20117;-67
2023/05/09 01:35:05;;;;;;;18.23;14.20;;;;;;;15.82;82.77;101434.84;3617920;39;20058;-67
2023/05/09 01:37:38;;;;;;;18.70;14.60;;;;;;;15.82;82.96;101432.13;3615464;39;20062;-68
2023/05/09 01:40:17;;;;;;;21.73;15.57;;;;;;;15.81;82.55;101422.25;3617122;39;20066;-67
2023/05/09 01:43:04;;;;;;;22.80;14.65;;;;;;;15.81;82.47;101427.69;3608023;39;20293;-67
2023/05/09 01:45:32;;;;;;;22.15;15.57;;;;;;;15.55;82.73;101378.97;3606427;39;20055;-67
2023/05/09 01:48:00;;;;;;;23.33;16.92;;;;;;;15.73;83.20;101405.69;3613506;39;20063;-67
2023/05/09 01:50:30;;;;;;;20.58;16.15;;;;;;;15.67;82.75;101398.03;3617914;39;20089;-67
2023/05/09 01:53:00;;;;;;;19.33;15.48;;;;;;;15.74;83.03;101412.88;3609481;39;20069;-68
2023/05/09 01:55:32;;;;;;;21.88;15.35;;;;;;;15.63;82.89;101385.66;3617504;39;20058;-68
2023/05/09 01:58:02;;;;;;;19.85;15.63;;;;;;;15.46;83.04;101363.38;3603270;39;20070;-67
2023/05/09 02:00:31;;;;;;;18.88;14.93;;;;;;;15.70;83.14;101403.25;3617068;39;20047;-67
2023/05/09 02:02:58;;;;;;;22.85;16.30;;;;;;;15.70;83.67;101403.25;3614899;39;20054;-67
2023/05/09 02:05:31;;;;;;;20.08;15.32;;;;;;;15.64;83.50;101398.25;3613222;39;20050;-67
2023/05/09 02:08:00;;;;;;;20.52;15.38;;;;;;;15.64;83.97;101398.25;3614218;39;20316;-67
2023/05/09 02:10:31;;;;;;;19.52;15.10;;;;;;;15.63;83.45;101393.78;3618471;39;20381;-67
2023/05/09 02:12:56;;;;;;;19.25;15.70;;;;;;;15.61;83.52;101393.03;3614437;39;21277;-67
2023/05/09 02:15:23;;;;;;;24.33;15.73;;;;;;;15.59;83.58;101390.44;3614024;39;20094;-67
2023/05/09 02:17:49;;;;;;;20.52;15.77;;;;;;;15.53;83.47;101388.16;3618194;39;20440;-67
2023/05/09 02:20:14;;;;;;;20.95;16.00;;;;;;;15.54;83.46;101406.19;3619789;39;20059;-67
2023/05/09 02:22:43;;;;;;;19.42;15.32;;;;;;;15.48;83.99;101403.91;3607516;39;20070;-69
2023/05/09 02:25:14;;;;;;;20.50;15.30;;;;;;;15.52;83.69;101408.13;3614174;39;20151;-68
2023/05/09 02:27:45;;;;;;;20.00;15.13;;;;;;;15.18;83.97;101352.84;3613514;39;20388;-68
2023/05/09 02:30:19;;;;;;;21.10;16.20;;;;;;;15.41;83.96;101392.63;3615301;39;20051;-68
2023/05/09 02:32:50;;;;;;;21.23;16.10;;;;;;;15.12;84.09;101345.16;3612581;39;20051;-68
2023/05/09 02:35:18;;;;;;;22.67;17.52;;;;;;;15.23;83.73;101366.91;3612827;39;20051;-68
2023/05/09 02:37:46;;;;;;;22.13;17.35;;;;;;;15.39;83.67;101402.75;3612760;39;20458;-68
2023/05/09 02:40:13;;;;;;;23.05;16.58;;;;;;;15.31;84.33;101397.88;3615273;39;20103;-68
2023/05/09 02:42:38;;;;;;;23.17;17.10;;;;;;;15.37;84.08;101411.94;3618944;39;20094;-68
2023/05/09 02:45:06;;;;;;;23.42;16.40;;;;;;;15.34;83.96;101399.50;3616139;39;20092;-68
2023/05/09 02:47:31;;;;;;;23.38;16.95;;;;;;;15.33;84.28;101381.50;3614243;39;20047;-68
2023/05/09 02:49:57;;;;;;;21.70;16.60;;;;;;;15.31;84.54;101384.31;3615933;39;20066;-68
2023/05/09 02:52:23;;;;;;;22.80;15.82;;;;;;;15.31;84.41;101378.91;3615927;39;20090;-68
2023/05/09 02:54:49;;;;;;;23.83;16.08;;;;;;;15.30;84.89;101368.19;3613561;39;20066;-68
2023/05/09 02:57:14;;;;;;;24.10;15.98;;;;;;;15.29;84.42;101377.31;3615987;39;20070;-68
2023/05/09 02:59:40;;;;;;;21.95;16.25;;;;;;;15.28;84.79;101375.56;3618004;39;20043;-67
2023/05/09 03:02:05;;;;;;;24.52;17.30;;;;;;;14.96;84.45;101316.47;3616508;39;20043;-68
2023/05/09 03:04:31;;;;;;;21.92;15.98;;;;;;;15.15;84.60;101347.63;3612141;39;20061;-67
2023/05/09 03:06:56;;;;;;;23.40;17.13;;;;;;;15.20;84.67;101356.31;3612510;39;20077;-68
2023/05/09 03:09:22;;;;;;;24.00;17.33;;;;;;;14.97;84.87;101317.34;3613236;39;20420;-68
2023/05/09 03:11:49;;;;;;;22.77;17.15;;;;;;;15.11;85.16;101336.16;3616512;39;20050;-68
2023/05/09 03:14:14;;;;;;;25.80;18.17;;;;;;;15.22;85.12;101348.91;3607096;39;20363;-68
2023/05/09 03:16:40;;;;;;;23.02;16.50;;;;;;;15.20;85.28;101346.34;3612618;39;20422;-68
2023/05/09 03:19:06;;;;;;;21.30;16.38;;;;;;;15.22;85.41;101338.09;3618862;39;20059;-68
2023/05/09 03:21:31;;;;;;;21.30;17.08;;;;;;;15.21;85.35;101353.47;3615470;39;20393;-68
2023/05/09 03:23:57;;;;;;;23.58;17.25;;;;;;;15.22;85.46;101355.22;3613840;39;20073;-68
2023/05/09 03:26:23;;;;;;;21.00;16.60;;;;;;;15.23;85.25;101345.25;3617167;39;20094;-68
2023/05/09 03:28:48;;;;;;;21.80;17.05;;;;;;;15.09;85.28;101321.88;3614000;39;20393;-68
2023/05/09 03:31:15;;;;;;;22.40;16.27;;;;;;;15.18;85.21;101323.03;3617787;39;20244;-68
2023/05/09 03:33:40;;;;;;;25.13;17.65;;;;;;;15.24;85.36;101337.00;3614393;39;20054;-68
2023/05/09 03:36:06;;;;;;;24.88;17.45;;;;;;;15.26;85.54;101345.03;3614859;39;20050;-68
2023/05/09 03:38:32;;;;;;;21.85;16.88;;;;;;;15.25;85.59;101338.72;3615793;39;20124;-68
2023/05/09 03:40:57;;;;;;;25.30;17.55;;;;;;;15.01;85.29;101297.22;3615655;39;20070;-68
2023/05/09 03:43:23;;;;;;;20.98;16.33;;;;;;;15.22;85.76;101335.38;3614861;39;20066;-68
2023/05/09 03:45:49;;;;;;;20.33;16.30;;;;;;;15.20;85.66;101338.22;3619430;39;20046;-68
2023/05/09 03:48:15;;;;;;;22.20;17.25;;;;;;;15.17;85.75;101329.44;3614442;39;20058;-68
2023/05/09 03:50:41;;;;;;;24.58;16.83;;;;;;;15.19;85.78;101332.88;3614469;39;20058;-68
2023/05/09 03:53:06;;;;;;;23.40;17.30;;;;;;;14.93;86.03;101284.22;3617083;39;20060;-68
2023/05/09 03:55:32;;;;;;;22.65;16.92;;;;;;;15.20;85.91;101321.09;3616847;39;20057;-68
2023/05/09 03:57:57;;;;;;;21.23;16.17;;;;;;;15.18;85.65;101314.91;3613774;39;20096;-68
2023/05/09 04:00:25;;;;;;;21.45;17.42;;;;;;;15.18;85.64;101325.75;3618314;39;20050;-68
2023/05/09 04:02:51;;;;;;;21.10;16.00;;;;;;;14.94;86.16;101285.97;3616228;39;20057;-68
2023/05/09 04:05:17;;;;;;;19.00;15.32;;;;;;;15.18;86.03;101320.34;3616355;39;20055;-68
2023/05/09 04:07:43;;;;;;;19.73;15.65;;;;;;;15.00;85.71;101279.22;3615875;39;20120;-69
2023/05/09 04:10:09;;;;;;;18.95;14.40;;;;;;;15.06;85.55;101290.50;3618749;39;20066;-69
2023/05/09 04:12:35;;;;;;;20.25;15.45;;;;;;;15.06;85.70;101290.50;3618034;39;20047;-68
2023/05/09 04:15:00;;;;;;;21.05;14.13;;;;;;;15.11;85.38;101297.41;3615328;39;20059;-69
2023/05/09 04:17:26;;;;;;;17.25;13.80;;;;;;;15.00;85.96;101280.09;3617277;39;20066;-67
2023/05/09 04:19:52;;;;;;;17.55;13.77;;;;;;;15.08;85.61;101296.63;3616816;39;20720;-67
2023/05/09 04:22:17;;;;;;;17.33;13.32;;;;;;;14.83;85.04;101251.53;3617792;39;20062;-68
2023/05/09 04:24:43;;;;;;;16.35;13.63;;;;;;;15.05;84.86;101283.31;3615980;39;20391;-67
2023/05/09 04:27:09;;;;;;;15.10;12.02;;;;;;;15.09;84.65;101292.09;3618318;39;20411;-68
2023/05/09 04:29:35;;;;;;;17.95;13.45;;;;;;;15.11;84.91;101300.09;3606237;39;20114;-68
2023/05/09 04:32:01;;;;;;;16.85;12.75;;;;;;;15.13;84.82;101290.00;3620082;39;20449;-68
2023/05/09 04:34:28;;;;;;;14.70;11.90;;;;;;;15.15;85.27;101282.66;3613744;39;20057;-68
2023/05/09 04:36:54;;;;;;;16.75;11.85;;;;;;;15.20;84.77;101285.91;3615733;39;20063;-68
2023/05/09 04:39:20;;;;;;;19.77;14.00;;;;;;;15.23;84.54;101291.94;3617416;39;20388;-68
2023/05/09 04:41:46;;;;;;;16.77;13.15;;;;;;;15.25;84.32;101289.09;3616569;39;20051;-68
2023/05/09 04:44:16;;;;;;;14.48;11.77;;;;;;;15.28;84.99;101291.59;3615061;39;20042;-68
2023/05/09 04:46:42;;;;;;;15.43;12.80;;;;;;;15.30;84.27;101284.22;3616370;39;20043;-68
2023/05/09 04:49:08;;;;;;;15.90;12.68;;;;;;;15.32;83.91;101282.28;3618312;39;20073;-68
2023/05/09 04:51:33;;;;;;;16.05;12.88;;;;;;;15.33;83.74;101284.00;3615975;39;20051;-67
2023/05/09 04:53:59;;;;;;;16.17;12.75;;;;;;;15.37;84.39;101280.06;3617263;39;20046;-68
2023/05/09 04:56:25;;;;;;;16.58;12.07;;;;;;;15.37;83.20;101263.81;3607087;39;20149;-68
2023/05/09 04:58:51;;;;;;;17.88;12.82;;;;;;;15.42;84.14;101264.34;3616950;39;20058;-68
2023/05/09 05:01:17;;;;;;;15.48;12.10;;;;;;;15.43;83.39;101260.66;3613975;39;20374;-68
2023/05/09 05:03:44;;;;;;;13.07;11.45;;;;;;;15.46;83.34;101262.28;3614050;39;20462;-68
2023/05/09 05:06:10;;;;;;;15.32;12.20;;;;;;;15.48;83.09;101253.06;3614493;39;20053;-67
2023/05/09 05:08:36;;;;;;;16.17;11.38;;;;;;;15.51;82.44;101246.53;3614923;39;20301;-67
2023/05/09 05:11:01;;;;;;;13.95;11.13;;;;;;;15.52;83.02;101246.41;3617611;39;20043;-68
2023/05/09 05:13:27;;;;;;;13.60;11.77;;;;;;;15.56;82.57;101239.75;3617535;39;20046;-67
2023/05/09 05:15:52;;;;;;;13.73;11.55;;;;;;;15.58;82.96;101238.81;3615278;39;20066;-68
2023/05/09 05:18:18;;;;;;;15.15;12.20;;;;;;;15.39;82.34;101201.41;3616680;39;20401;-68
2023/05/09 05:20:44;;;;;;;16.75;11.88;;;;;;;15.59;83.06;101235.09;3615807;39;20063;-67
2023/05/09 05:23:09;;;;;;;17.42;13.18;;;;;;;15.52;82.62;101219.31;3614540;39;20051;-67
2023/05/09 05:25:35;;;;;;;14.98;12.77;;;;;;;15.59;82.02;101227.84;3616462;39;20300;-68
2023/05/09 05:28:01;;;;;;;15.68;12.45;;;;;;;15.61;83.00;101227.72;3617951;39;20051;-68
2023/05/09 05:30:27;;;;;;;16.75;13.48;;;;;;;15.64;83.15;101230.22;3618593;39;20411;-68
2023/05/09 05:32:52;;;;;;;15.88;13.27;;;;;;;15.67;82.84;101219.16;3608518;39;20062;-67
2023/05/09 05:35:20;;;;;;;15.73;12.80;;;;;;;15.73;83.01;101226.78;3615586;39;20057;-68
2023/05/09 05:37:46;;;;;;;15.15;12.77;;;;;;;15.72;82.05;101216.94;3615266;39;20091;-67
2023/05/09 05:40:12;;;;;;;17.38;12.95;;;;;;;15.78;82.46;101211.06;3614423;39;20105;-68
2023/05/09 05:42:38;;;;;;;13.65;11.95;;;;;;;15.86;81.88;101214.03;3616531;39;20061;-66
2023/05/09 05:45:04;;;;;;;16.05;12.32;;;;;;;15.91;81.27;101210.97;3615950;39;20050;-66
2023/05/09 05:47:35;;;;;;;15.57;12.02;;;;;;;15.96;81.30;101215.03;3617732;39;20050;-66
2023/05/09 05:50:05;;;;;;;17.38;12.82;;;;;;;16.00;80.47;101210.25;3612982;39;20057;-66
2023/05/09 05:52:31;;;;;;;16.13;12.43;;;;;;;16.06;81.16;101209.75;3615779;39;20062;-66
2023/05/09 05:54:57;;;;;;;17.98;12.30;;;;;;;16.12;80.76;101203.84;3604318;39;20050;-66
2023/05/09 05:57:22;;;;;;;14.00;11.57;;;;;;;16.18;80.23;101202.50;3612933;39;20055;-66
2023/05/09 05:59:50;;;;;;;14.95;12.45;;;;;;;16.18;80.39;101200.66;3614419;39;20043;-66
2023/05/09 06:02:17;;;;;;;14.88;12.10;;;;;;;16.19;79.13;101201.50;3614809;39;20131;-66
2023/05/09 06:04:43;;;;;;;15.10;11.43;;;;;;;16.27;79.59;101195.47;3613016;39;20388;-66
2023/05/09 06:07:11;;;;;;;15.45;11.30;;;;;;;16.34;78.93;101197.59;3612491;39;20058;-67
2023/05/09 06:09:37;;;;;;;15.93;11.43;;;;;;;16.35;78.03;101188.44;3613930;39;20051;-67
2023/05/09 06:12:03;;;;;;;15.63;11.27;;;;;;;16.40;78.75;101188.97;3618224;39;20086;-66
2023/05/09 06:14:29;;;;;;;12.07;10.80;;;;;;;16.46;78.81;101183.03;3615375;39;20070;-66
2023/05/09 06:16:55;;;;;;;12.93;11.18;;;;;;;16.47;78.35;101176.59;3618325;39;20053;-66
2023/05/09 06:19:20;;;;;;;12.30;10.60;;;;;;;16.51;78.05;101176.34;3616486;39;20057;-66
2023/05/09 06:21:46;;;;;;;12.30;10.90;;;;;;;16.50;78.44;101175.50;3618912;39;20597;-66
2023/05/09 06:24:11;;;;;;;12.93;10.95;;;;;;;16.57;77.61;101176.72;3613846;39;20047;-66
2023/05/09 06:26:37;;;;;;;13.05;10.75;;;;;;;16.58;78.25;101177.56;3612893;39;20085;-66
2023/05/09 06:29:05;;;;;;;14.02;11.07;;;;;;;16.58;77.54;101175.72;3614093;39;20054;-65
2023/05/09 06:31:31;;;;;;;13.70;10.85;;;;;;;16.58;76.79;101172.16;3614655;39;20657;-66
2023/05/09 06:33:56;;;;;;;15.68;11.52;;;;;;;16.61;77.47;101167.34;3618692;39;20042;-66
2023/05/09 06:36:22;;;;;;;13.82;11.48;;;;;;;16.53;77.61;101172.53;3612647;39;20073;-66
2023/05/09 06:38:47;;;;;;;13.00;10.90;;;;;;;16.56;78.37;101169.56;3616386;39;20163;-68
2023/05/09 06:41:13;;;;;;;12.27;10.82;;;;;;;16.61;78.38;101166.47;3614060;39;20077;-66
2023/05/09 06:43:38;;;;;;;12.85;10.48;;;;;;;16.67;77.21;101163.25;3619967;39;20046;-66
2023/05/09 06:46:04;;;;;;;12.32;10.60;;;;;;;16.66;77.48;101164.25;3615974;39;20289;-66
2023/05/09 06:48:30;;;;;;;13.02;10.80;;;;;;;16.69;76.98;101155.84;3621590;39;20055;-66
2023/05/09 06:50:55;;;;;;;13.63;10.73;;;;;;;16.69;77.31;101161.28;3614942;39;20059;-65
2023/05/09 06:53:21;;;;;;;13.65;10.98;;;;;;;16.74;77.37;101163.63;3621220;39;20071;-66
2023/05/09 06:55:47;;;;;;;12.88;10.70;;;;;;;16.77;77.39;101156.09;3617783;39;20050;-67
2023/05/09 06:58:12;;;;;;;13.05;10.43;;;;;;;16.77;76.70;101145.25;3616663;39;20062;-66
2023/05/09 07:00:38;;;;;;;13.05;10.63;;;;;;;16.81;77.64;101143.13;3616554;39;20054;-67
2023/05/09 07:03:06;;;;;;;11.52;10.27;;;;;;;16.82;77.42;101142.16;3613098;39;20080;-67
2023/05/09 07:05:32;;;;;;;12.75;10.18;;;;;;;16.86;77.37;101141.78;3612789;39;20043;-67
2023/05/09 07:07:58;;;;;;;10.45;9.35;;;;;;;16.87;76.11;101142.63;3616106;39;20047;-65
2023/05/09 07:10:23;;;;;;;11.02;9.55;;;;;;;16.87;76.58;101139.91;3616528;39;20274;-66
2023/05/09 07:12:49;;;;;;;12.20;10.35;;;;;;;16.92;76.02;101137.69;3616457;39;20057;-68
2023/05/09 07:15:15;;;;;;;12.70;9.38;;;;;;;16.88;76.11;101137.09;3615815;39;20063;-68
2023/05/09 07:17:41;;;;;;;11.10;9.15;;;;;;;16.92;75.89;101138.53;3625523;39;20404;-68
2023/05/09 07:20:07;;;;;;;11.45;8.85;;;;;;;16.88;76.41;101137.09;3616870;39;20069;-67
2023/05/09 07:22:33;;;;;;;13.88;8.80;;;;;;;16.88;76.25;101130.78;3622214;39;20091;-67
2023/05/09 07:24:58;;;;;;;8.80;7.85;;;;;;;16.86;76.86;101133.63;3618915;39;20050;-67
2023/05/09 07:27:24;;;;;;;9.93;8.52;;;;;;;16.86;76.21;101133.63;3620088;39;20070;-67
2023/05/09 07:29:51;;;;;;;13.32;8.45;;;;;;;16.81;76.01;101129.56;3620445;39;20057;-68
2023/05/09 07:32:18;;;;;;;9.13;7.63;;;;;;;16.80;76.42;101128.69;3619387;39;20118;-66
2023/05/09 07:34:43;;;;;;;9.50;7.95;;;;;;;16.75;77.07;101130.97;3620373;39;20046;-68
2023/05/09 07:37:09;;;;;;;11.88;8.38;;;;;;;16.66;78.13;101131.69;3618534;39;20062;-68
2023/05/09 07:39:34;;;;;;;10.07;8.70;;;;;;;16.62;79.16;101130.22;3623142;39;20106;-67
2023/05/09 07:42:00;;;;;;;10.02;7.95;;;;;;;16.07;80.01;101047.91;3612536;39;20046;-67
2023/05/09 07:44:26;;;;;;;9.57;8.60;;;;;;;16.47;79.80;101125.03;3621672;39;20097;-67
2023/05/09 07:46:54;;;;;;;9.02;8.13;;;;;;;16.43;81.43;101128.16;3617803;39;20053;-68
2023/05/09 07:49:20;;;;;;;11.93;8.63;;;;;;;16.41;82.49;101122.84;3616682;39;20059;-68
2023/05/09 07:51:46;;;;;;;9.40;8.48;;;;;;;16.38;83.34;101122.22;3616940;39;20086;-68
2023/05/09 07:54:12;;;;;;;10.45;8.73;;;;;;;16.34;83.49;101116.19;3615933;39;20061;-67
2023/05/09 07:56:38;;;;;;;10.93;9.00;;;;;;;16.38;83.56;101117.66;3619192;39;20062;-67
2023/05/09 07:59:03;;;;;;;11.13;8.77;;;;;;;16.37;83.94;101105.09;3616156;39;20046;-67
2023/05/09 08:01:29;;;;;;;10.40;9.27;;;;;;;16.33;84.18;101100.88;3617587;39;20054;-68
2023/05/09 08:03:55;;;;;;;9.73;8.70;;;;;;;16.34;84.01;101097.19;3618052;39;20043;-68
2023/05/09 08:06:20;;;;;;;11.63;8.50;;;;;;;16.35;84.64;101100.78;3616659;39;20086;-68
2023/05/09 08:08:46;;;;;;;9.85;8.85;;;;;;;16.39;84.78;101092.25;3618319;39;20065;-67
2023/05/09 08:11:11;;;;;;;9.35;7.90;;;;;;;16.44;84.13;101084.59;3619542;39;20061;-67
2023/05/09 08:13:37;;;;;;;9.20;8.25;;;;;;;16.56;82.56;101088.16;3623527;39;20060;-68
2023/05/09 08:16:03;;;;;;;8.40;7.50;;;;;;;16.60;82.70;101083.31;3617462;39;20090;-68
2023/05/09 08:18:29;;;;;;;9.93;7.95;;;;;;;16.63;82.17;101081.22;3614169;39;20057;-68
2023/05/09 08:20:54;;;;;;;10.93;7.93;;;;;;;16.76;81.64;101083.81;3614443;39;20212;-68
2023/05/09 08:23:20;;;;;;;7.45;6.47;;;;;;;16.69;79.53;101072.56;3618061;39;20175;-68
2023/05/09 08:25:46;;;;;;;8.23;7.20;;;;;;;16.64;81.40;101065.78;3608327;39;20460;-68
2023/05/09 08:28:11;;;;;;;7.70;6.93;;;;;;;16.63;80.62;101066.78;3618619;39;20057;-68
2023/05/09 08:30:37;;;;;;;8.98;6.93;;;;;;;16.59;80.48;101062.63;3614520;39;20059;-66
2023/05/09 08:33:02;;;;;;;7.18;6.47;;;;;;;16.57;81.27;101057.31;3620692;39;20058;-66
2023/05/09 08:35:28;;;;;;;8.35;7.53;;;;;;;16.52;82.08;101053.25;3617709;39;20054;-66
2023/05/09 08:37:54;;;;;;;8.40;7.60;;;;;;;16.47;81.98;101043.63;3621761;39;20057;-66
2023/05/09 08:40:20;;;;;;;9.88;7.70;;;;;;;16.40;81.95;101058.72;3616834;39;20063;-67
2023/05/09 08:42:48;;;;;;;8.98;7.78;;;;;;;16.38;82.93;101048.97;3606265;39;20065;-68
2023/05/09 08:45:24;;;;;;;9.10;8.00;;;;;;;16.42;84.24;101053.13;3618907;39;20101;-67
2023/05/09 08:47:52;;;;;;;10.02;8.05;;;;;;;16.44;85.29;101056.59;3608332;39;20050;-67
2023/05/09 08:50:19;;;;;;;9.52;8.45;;;;;;;16.45;85.10;101047.47;3618064;39;20083;-68
2023/05/09 08:52:46;;;;;;;10.85;8.40;;;;;;;16.42;85.63;101043.16;3620558;39;20082;-68
2023/05/09 08:55:13;;;;;;;9.45;7.80;;;;;;;16.54;84.98;101048.56;3620262;39;20381;-66
2023/05/09 08:57:39;;;;;;;8.70;7.80;;;;;;;16.47;85.66;101040.94;3619851;39;20377;-66
2023/05/09 09:00:09;;;;;;;10.48;7.05;;;;;;;16.30;84.56;101017.06;3614846;39;20047;-66
2023/05/09 09:02:39;;;;;;;7.78;7.03;;;;;;;16.36;85.06;101032.78;3618353;39;20054;-66
2023/05/09 09:05:06;;;;;;;8.38;6.90;;;;;;;16.39;84.94;101037.97;3617869;39;20062;-67
2023/05/09 09:07:37;;;;;;;7.22;6.18;;;;;;;16.38;84.37;101036.25;3619757;39;20042;-68
2023/05/09 09:10:06;;;;;;;7.93;5.78;;;;;;;16.30;83.99;101038.75;3609909;39;20067;-68
2023/05/09 09:12:33;;;;;;;6.22;5.18;;;;;;;16.23;84.17;101032.09;3613968;39;20120;-67
2023/05/09 09:15:05;;;;;;;6.38;4.97;;;;;;;16.20;85.56;101032.34;3617458;39;20069;-67
2023/05/09 09:17:36;;;;;;;6.07;5.47;;;;;;;16.15;85.34;101030.03;3613922;39;20084;-67
2023/05/09 09:20:07;;;;;;;6.40;5.53;;;;;;;16.16;85.82;101031.75;3616291;39;20051;-67
2023/05/09 09:22:37;;;;;;;6.05;5.55;;;;;;;16.15;86.48;101029.16;3616415;39;20053;-67
2023/05/09 09:25:03;;;;;;;6.53;5.78;;;;;;;16.16;87.28;101022.75;3616601;39;20408;-67
2023/05/09 09:27:30;;;;;;;7.97;5.93;;;;;;;16.20;88.68;101027.78;3615370;39;20049;-67
2023/05/09 09:30:09;;;;;;;5.90;5.30;;;;;;;16.21;88.13;101023.25;3617663;39;20055;-67
2023/05/09 09:32:37;;;;;;;5.78;5.15;;;;;;;16.23;88.41;101021.25;3616235;39;20061;-66
2023/05/09 09:35:08;;;;;;;6.35;5.60;;;;;;;16.19;88.60;100992.66;3616671;39;20071;-67
2023/05/09 09:37:38;;;;;;;8.23;5.45;;;;;;;16.30;87.68;100999.91;3619543;39;20090;-67
2023/05/09 09:40:10;;;;;;;5.63;4.80;;;;;;;16.37;87.33;101007.41;3615761;39;20042;-67
2023/05/09 09:42:47;;;;;;;6.72;4.72;;;;;;;16.19;87.11;100971.81;3617054;39;20058;-67
2023/05/09 09:45:17;;;;;;;5.47;4.35;;;;;;;16.41;86.18;101000.72;3616642;39;20412;-67
2023/05/09 09:47:45;;;;;;;8.02;4.93;;;;;;;16.44;86.30;101002.34;3618983;39;20532;-67
2023/05/09 09:50:12;;;;;;;5.68;4.90;;;;;;;16.46;86.60;101003.06;3615201;39;20054;-67
2023/05/09 09:52:49;;;;;;;5.82;4.88;;;;;;;16.41;85.59;100994.44;3616955;39;20046;-67
2023/05/09 09:55:16;;;;;;;5.95;5.13;;;;;;;16.31;86.68;100979.94;3614576;39;20320;-67
2023/05/09 09:57:44;;;;;;;8.25;5.40;;;;;;;16.49;88.57;101000.06;3616896;39;20129;-68
2023/05/09 10:00:16;;;;;;;6.13;5.18;;;;;;;16.27;86.84;100962.16;3617383;39;20049;-67
2023/05/09 10:02:56;;;;;;;6.25;5.65;;;;;;;16.41;87.85;100992.59;3616557;39;20062;-68
2023/05/09 10:05:26;;;;;;;6.07;5.50;;;;;;;16.43;87.73;100993.34;3614961;39;20089;-68
2023/05/09 10:08:03;;;;;;;6.43;5.50;;;;;;;16.44;87.66;100986.91;3616201;39;20043;-68
2023/05/09 10:10:34;;;;;;;6.38;5.72;;;;;;;16.40;87.91;100984.59;3616205;39;20081;-67
2023/05/09 10:13:08;;;;;;;6.47;5.38;;;;;;;16.37;87.98;100985.72;3615150;39;20097;-68
2023/05/09 10:15:36;;;;;;;7.07;5.72;;;;;;;16.26;88.74;100972.16;3616008;39;20062;-67
2023/05/09 10:18:07;;;;;;;8.15;5.82;;;;;;;16.34;88.32;100980.53;3612941;39;20054;-68
2023/05/09 10:20:34;;;;;;;6.13;5.53;;;;;;;16.33;88.18;100977.94;3618888;39;20050;-68
2023/05/09 10:23:05;;;;;;;8.23;5.85;;;;;;;16.26;88.45;100983.00;3615799;39;20058;-67
2023/05/09 10:25:45;;;;;;;7.13;5.80;;;;;;;16.18;88.43;100980.97;3617992;39;20054;-67
2023/05/09 10:28:20;;;;;;;7.20;6.50;;;;;;;16.20;89.61;100969.97;3607118;39;20057;-67
2023/05/09 10:31:15;;;;;;;6.65;5.90;;;;;;;16.18;89.99;100963.81;3615506;39;20051;-67
2023/05/09 10:33:49;;;;;;;6.47;5.55;;;;;;;16.14;89.66;100978.59;3616332;39;20074;-67
2023/05/09 10:36:25;;;;;;;7.97;6.13;;;;;;;16.14;90.43;100968.66;3606302;39;20389;-68
2023/05/09 10:38:54;;;;;;;7.00;6.10;;;;;;;16.16;91.25;100963.09;3613941;39;20051;-68
2023/05/09 10:41:21;;;;;;;8.13;6.68;;;;;;;16.15;90.55;100962.22;3616011;39;20387;-68
2023/05/09 10:43:47;;;;;;;7.57;6.43;;;;;;;16.14;92.43;100954.19;3616230;39;20059;-68
2023/05/09 10:46:14;;;;;;;7.40;6.63;;;;;;;16.11;90.85;100951.75;3617192;39;20055;-67
2023/05/09 10:48:42;;;;;;;7.50;6.75;;;;;;;16.05;91.30;100947.72;3620697;39;20334;-67
2023/05/09 10:51:09;;;;;;;6.32;5.72;;;;;;;16.06;91.57;100948.56;3618088;39;20332;-67
2023/05/09 10:53:47;;;;;;;7.20;6.47;;;;;;;16.10;92.01;100947.31;3618821;39;20053;-68
2023/05/09 10:56:32;;;;;;;6.18;5.57;;;;;;;16.06;91.19;100938.56;3618245;39;20470;-67
2023/05/09 10:58:59;;;;;;;7.85;5.88;;;;;;;15.82;92.16;100913.50;3619322;39;20489;-68
2023/05/09 11:01:35;;;;;;;6.80;6.10;;;;;;;15.95;92.38;100941.31;3618286;39;20051;-68
2023/05/09 11:04:13;;;;;;;8.35;6.43;;;;;;;15.89;93.27;100941.81;3618444;39;20050;-67
2023/05/09 11:06:45;;;;;;;7.53;6.50;;;;;;;15.90;94.92;100933.56;3618460;39;20055;-68
2023/05/09 11:09:32;;;;;;;7.65;6.47;;;;;;;15.92;93.77;100931.59;3615663;39;20044;-68
2023/05/09 11:12:08;;;;;;;7.55;6.85;;;;;;;15.90;94.60;100928.13;3619500;39;20064;-68
2023/05/09 11:14:40;;;;;;;6.50;5.90;;;;;;;15.73;93.56;100905.16;3619130;39;20054;-68
2023/05/09 11:17:22;;;;;;;5.95;5.38;;;;;;;15.87;92.46;100925.69;3615909;39;20043;-68
2023/05/09 11:19:48;;;;;;;5.75;5.15;;;;;;;15.75;93.14;100924.84;3615533;39;20058;-68